Nikita Ikaunieks

首席球探 - Liepaja
24 九月 2028
星期日
處理

性格

適應力 (17) 野心 (7) 爭議性 (10) 忠誠度 (6) 抗壓 (19) 職業素養 (18) 體育精神 (10) 性情 (1)

個人檔案

執教風格 民主型
教練證照 國家A級
決心 3
人員管理 8
激勵 8
紀律 7
工作滿意度
100%
疲勞度
0%
職務 首席球探
薪資 35.0K 每週
合約 14.03.2029

性能

行為 良好
訓練效果
26%
球員發展
35%
傷病預防
35%
戰術執行
45%

近期事件

推荐了转会目标 刚刚
推荐了转会目标 刚刚
推荐了转会目标 刚刚
推荐了转会目标 刚刚
推荐了转会目标 刚刚
推荐了转会目标 刚刚
推荐了转会目标 刚刚
推荐了转会目标 刚刚

正在监控

166
球員 俱樂部 狀態 能力 信心 已观察 最后观察 最新投票
Enrico Delprato Parma 活跃 149 / 149 40% 1 14.08.2028 -
Tommaso Milanese Ascoli 活跃 137 / 123 40% 1 14.08.2028 -
Vladimirs Jurkovskis Skonto 谈判中 71 / 81 62% 1 07.08.2028 -
Aleksandrs Tarasovs Spartaks 活跃 91 / 79 62% 1 24.07.2028 赞成
Hazem Mastouri Skonto 已失去 113 / 100 62% 1 26.06.2028 赞成
Raivis Savalnieks Spartaks 活跃 89 / 94 62% 1 12.06.2028 赞成
Nicolás Maturana Daugavpils 谈判中 92 / 96 62% 1 04.06.2028 赞成
Bruno Belizán Metta/LU 活跃 83 / 105 62% 1 02.06.2028 赞成
Andy Rinomhota Reading 活跃 116 / 130 40% 2 31.05.2028 -
Jay McGrath Doncaster Rovers 活跃 107 / 103 40% 1 31.05.2028 -
Josh Neufville Bradford City 活跃 122 / 117 40% 1 30.05.2028 -
Admir Bristrić Cambridge United 活跃 127 / 124 40% 1 28.05.2028 -
George Hall Port Vale 活跃 110 / 135 40% 1 28.05.2028 -
Maxim Petrov Baltika 活跃 130 / 131 40% 1 25.05.2028 -
Stanley Mills Crewe Alexandra 活跃 126 / 107 40% 1 25.05.2028 -
Malik Mothersille Stockport County 活跃 132 / 111 40% 3 23.05.2028 -
Kyreece Lisbie Colchester United 活跃 99 / 94 40% 1 23.05.2028 -
Jay Matete Milton Keynes Dons 活跃 131 / 106 40% 1 22.05.2028 -
Declan Frith Peterborough United 活跃 114 / 104 40% 2 20.05.2028 -
Mohamadou Kanté Crawley Town 活跃 111 / 118 40% 1 20.05.2028 -
Reyes Cleary Bromley 活跃 134 / 111 40% 2 19.05.2028 -
Darko Todorović Fakel 活跃 112 / 104 40% 2 17.05.2028 -
Dale Taylor Blackpool 活跃 128 / 105 40% 1 17.05.2028 -
Ar'jany Martha Rotherham United 活跃 102 / 115 40% 1 16.05.2028 -
Gideon Kumar Luton Town 活跃 112 / 120 40% 1 15.05.2028 -
Lewis Bate Stockport County 活跃 132 / 110 40% 1 14.05.2028 -
Amankwah Forson Wycombe Wanderers 活跃 127 / 129 40% 1 13.05.2028 -
Alessandro Arena Arezzo 活跃 127 / 120 40% 1 08.05.2028 -
Calvin Ramsay Bristol Rovers 活跃 129 / 117 40% 1 07.05.2028 -
Caylan Vickers Burton Albion 活跃 130 / 106 40% 1 04.05.2028 -
Ramazan Gadjimuradov Chelyabinsk 活跃 103 / 115 40% 1 03.05.2028 -
Denzel Hall Rotherham United 活跃 115 / 107 40% 1 02.05.2028 -
Jack Taylor Doncaster Rovers 活跃 142 / 144 40% 1 01.05.2028 -
Matthew Litherland Harrogate Town 活跃 101 / 102 40% 1 01.05.2028 -
Connor Barrett Walsall 活跃 120 / 126 40% 2 30.04.2028 -
Đorđe Pantelić Spartak Kostroma 活跃 102 / 114 40% 2 29.04.2028 -
Johnly Yfeko Exeter City 活跃 122 / 111 40% 1 27.04.2028 -
Charles Vernam Grimsby Town 活跃 118 / 106 40% 1 27.04.2028 -
Stephen Humphrys Bradford City 活跃 114 / 91 40% 1 26.04.2028 -
Kane Wilson Milton Keynes Dons 活跃 110 / 102 40% 1 25.04.2028 -
Nesta Guinness-Walker Bradford City 活跃 102 / 100 40% 2 24.04.2028 -
Vyacheslav Grulev Nizhniy Novgorod 活跃 126 / 105 40% 4 23.04.2028 -
Maxime Sivis Orenburg 活跃 110 / 119 40% 1 22.04.2028 -
Victor Torp Bristol Rovers 活跃 147 / 120 40% 1 22.04.2028 -
Artem Mamin Doncaster Rovers 活跃 111 / 86 40% 3 21.04.2028 -
Xavier Amaechi Plymouth Argyle 活跃 117 / 97 40% 1 21.04.2028 -
Krasian Kolev Chernomorets 活跃 106 / 113 40% 1 21.04.2028 -
Nathan Moriah-Welsh Mansfield Town 活跃 114 / 106 40% 1 21.04.2028 -
Nikolay Tolstopyatov Neftekhimik 活跃 99 / 92 40% 1 20.04.2028 -
Camillo Tavernelli Arezzo 活跃 134 / 140 40% 1 18.04.2028 -
Eli King Gillingham 活跃 103 / 110 40% 1 17.04.2028 -
Ben Garrity Port Vale 活跃 125 / 108 40% 1 14.04.2028 -
Ignacio Saavedra Sochi 活跃 122 / 133 40% 4 11.04.2028 -
Daichi Kamada Luton Town 活跃 148 / 125 40% 1 11.04.2028 -
Matěj Jurásek Doncaster Rovers 活跃 134 / 103 40% 1 10.04.2028 -
Leo Goglichidze Rodina 活跃 105 / 110 40% 1 09.04.2028 -
Mikhail Ignatov Sochi 活跃 114 / 120 40% 2 07.04.2028 -
François Kamano Sochi 活跃 117 / 125 40% 2 07.04.2028 -
Terry Taylor Charlton Athletic 活跃 126 / 118 40% 1 06.04.2028 -
Janis Vanins Daugavpils 活跃 61 / 66 30% 1 / 1m 05.04.2028 -
Ethan Pye Stockport County 活跃 114 / 120 40% 1 03.04.2028 -
Robert Mejía Orenburg 活跃 125 / 116 40% 3 22.03.2028 -
Joshua Quarshie Exeter City 活跃 126 / 147 40% 1 22.03.2028 -
Nader Mohammadi Spartak Kostroma 活跃 98 / 95 40% 1 21.03.2028 -
Marcelo Alves SKA Khabarovsk 活跃 107 / 118 40% 1 20.03.2028 -
Alan Tsaraev Arsenal Tula 活跃 114 / 117 40% 1 19.03.2028 -
Iker Pozo Rodina 活跃 126 / 126 40% 2 18.03.2028 -
Kyle John Port Vale 活跃 102 / 123 40% 1 16.03.2028 -
Nathan Gassama Baltika 活跃 124 / 121 40% 2 15.03.2028 -
Will Smallbone Crewe Alexandra 活跃 140 / 154 40% 1 14.03.2028 -
Ruslan Baitukov Chelyabinsk 活跃 102 / 87 40% 1 14.03.2028 -
Edgardo Fariña Nizhniy Novgorod 活跃 114 / 127 40% 1 12.03.2028 -
Alexey Berdnikov Chelyabinsk 活跃 107 / 92 40% 1 09.03.2028 -
Nikita Kakkoev Nizhniy Novgorod 活跃 129 / 117 40% 1 09.03.2028 -
Odel Offiah Shrewsbury Town 活跃 139 / 137 40% 1 07.03.2028 -
Daniil Marugin Shinnik 活跃 105 / 104 40% 1 07.03.2028 -
Erik Brenden Ventspils 活跃 89 / 100 62% 1 03.01.2028 赞成
Genaro Rossi San Martín SJ 活跃 117 / 104 40% 2 01.01.2028 -
Augusto Berrondo Tristán Suárez 活跃 123 / 116 40% 3 01.01.2028 -
Ilja Zhbanov Cobresal 活跃 90 / 94 66% 1 01.01.2028 赞成
Daniel Barrea Godoy Cruz 活跃 137 / 133 40% 1 31.12.2027 -
Bruno Leyes Godoy Cruz 活跃 142 / 143 40% 2 30.12.2027 -
Marco Miori Alvarado 活跃 108 / 133 40% 3 29.12.2027 -
Matija Popović Fakel 活跃 121 / 107 40% 1 29.12.2027 -
Federico Ulayar Talleres 活跃 111 / 104 40% 1 28.12.2027 -
Horacio Tijanovich Central Córdoba SdE 活跃 130 / 103 40% 2 27.12.2027 -
Federico Bisanz Atlanta 活跃 110 / 103 40% 1 27.12.2027 -
Sebastián Cocimano Nueva Chicago 活跃 101 / 125 40% 2 26.12.2027 -
Fabricio Rojas Khazar 活跃 127 / 126 40% 1 26.12.2027 -
Misael Tarón Ferro Carril Oeste 活跃 105 / 114 40% 1 25.12.2027 -
Delfor Minervino Estudiantes 活跃 128 / 105 40% 2 23.12.2027 -
Rodrigo González Mitre 活跃 126 / 99 40% 1 23.12.2027 -
Gilson Benchimol Baltika 活跃 109 / 105 40% 1 22.12.2027 -
Kamran Aliev SKA Khabarovsk 活跃 109 / 100 40% 2 21.12.2027 -
Yeferson Rodallega Envigado 活跃 121 / 115 40% 1 21.12.2027 -
José Barreto Quilmes 活跃 104 / 94 40% 3 20.12.2027 -
Favio Cabral Mitre 活跃 117 / 122 40% 2 20.12.2027 -
Jonathan Farías Torpedo Kutaisi 活跃 118 / 116 40% 1 20.12.2027 -
Tobías Cervera Gimnasia y Esgrima 活跃 114 / 139 40% 2 19.12.2027 -
Juan Mendoza Güemes 活跃 102 / 90 40% 1 19.12.2027 -
Tomás Rojas Atlanta 活跃 122 / 127 40% 1 19.12.2027 -
Nicolás Del Priore Tristán Suárez 活跃 97 / 95 40% 1 18.12.2027 -
Brian Farioli Estudiantes 活跃 104 / 134 40% 1 18.12.2027 -
Franco Camargo Gimnasia y Esgrima 活跃 116 / 123 40% 2 17.12.2027 -
Alejo Dramisino Atlanta 谈判中 111 / 106 40% 2 17.12.2027 -
Gianluca Pugliese Güemes 活跃 119 / 118 40% 2 16.12.2027 -
Matías Rosales Sarmiento 活跃 105 / 99 40% 1 16.12.2027 -
Facundo Krüger Temperley 活跃 101 / 106 40% 2 15.12.2027 -
Lautaro Gordillo Colegiales 活跃 103 / 104 40% 1 15.12.2027 -
Gamid Agalarov Orenburg 活跃 111 / 102 40% 1 14.12.2027 -
Lisandro Cabrera Maipú 活跃 101 / 135 40% 3 13.12.2027 -
Gonzalo Asis Almagro 活跃 124 / 91 40% 2 12.12.2027 -
Enzo González Defensores 活跃 98 / 97 40% 1 12.12.2027 -
Sebastián Jaurena San Martín SJ 活跃 119 / 133 40% 1 12.12.2027 -
Luca Franco Arsenal 活跃 116 / 89 40% 1 11.12.2027 -
Germán Cervera Alvarado 活跃 89 / 83 40% 1 10.12.2027 -
Pedro Souto Temperley 活跃 108 / 136 40% 3 09.12.2027 -
Bryan Teixeira Zalgiris 活跃 123 / 119 40% 1 09.12.2027 -
Alan Bonansea Colón 活跃 118 / 92 40% 1 08.12.2027 -
Alexander Díaz Deportivo Riestra 活跃 128 / 135 40% 1 08.12.2027 -
Nicolás Mosca Atlanta 活跃 115 / 117 40% 1 06.12.2027 -
Franco Vedoya Central Norte 活跃 104 / 122 40% 1 04.12.2027 -
José Rivas Gamboa Trujillanos 活跃 93 / 118 40% 1 02.12.2027 -
Luighi Palmeiras 活跃 111 / 121 40% 1 02.12.2027 -
Yeferson Rincon Atletico Venezuela 活跃 117 / 89 40% 1 01.12.2027 -
Alexey Kashtanov Torpedo Moscow 活跃 98 / 119 40% 1 28.11.2027 -
Rafael Moreno Atletico Venezuela 活跃 122 / 103 40% 1 27.11.2027 -
Agustín Gallo Tristán Suárez 活跃 106 / 120 40% 1 27.11.2027 -
Ilja Safronov Rotor 活跃 102 / 90 40% 1 26.11.2027 -
David Veliz Güemes 活跃 98 / 99 40% 1 26.11.2027 -
Santiago Sala Güemes 活跃 111 / 127 40% 1 25.11.2027 -
José Balza Deportivo Tachira 活跃 115 / 100 40% 1 25.11.2027 -
Alexandr Lomovitskiy Torpedo-BelAZ 活跃 118 / 97 40% 1 25.11.2027 -
Omran Haydary Suduva 活跃 105 / 102 40% 1 23.11.2027 -
Yegor Kortsov Dinamo Brest 活跃 119 / 103 40% 3 22.11.2027 -
Guljigit Alykulov Dinamo Minsk 活跃 103 / 103 40% 1 22.11.2027 -
Mauricio Márquez Caracas 活跃 120 / 96 40% 1 20.11.2027 -
Gonzalo Gamarra Defensores 活跃 103 / 114 40% 1 20.11.2027 -
Sagir Arce Saburtalo 活跃 113 / 105 40% 1 18.11.2027 -
Ángelo Lucena Carabobo 活跃 109 / 107 40% 1 17.11.2027 -
Raivis Gabovs Jelgava 活跃 87 / 70 62% 1 28.06.2027 赞成
Diego González Metta/LU 活跃 90 / 73 62% 1 14.06.2027 赞成
Gianluca Scremin Metta/LU 活跃 75 / 71 62% 1 04.06.2027 赞成
Jānis Grīnbergs Metta/LU 活跃 78 / 70 62% 1 02.06.2027 赞成
Raivis Rugins Jelgava 活跃 93 / 98 62% 1 03.01.2027 赞成
Rashid Magomedov Neftekhimik 活跃 92 / 81 40% 3 31.12.2026 -
Christos Giousis Nea Salamis 活跃 103 / 98 40% 1 31.12.2026 -
Vladimir Khubulov Dinamo Makhachkala 活跃 97 / 102 40% 1 30.12.2026 -
Banou Cissé Real Bamako 活跃 101 / 117 40% 1 28.12.2026 -
Vladislav Lozhkin Dinamo Brest 活跃 92 / 103 40% 1 28.12.2026 -
Georgy Melkadze Akhmat Grozny 活跃 118 / 115 40% 1 25.12.2026 -
Ruslan Apekov Torpedo Moscow 活跃 112 / 97 40% 1 23.12.2026 -
Damir Céter Hamrun Spartans 活跃 85 / 83 40% 2 20.12.2026 -
Denis M. Kovalevich Dinamo Brest 活跃 87 / 104 40% 1 20.12.2026 -
Denzel Jubitana Neftchi 活跃 114 / 100 40% 2 19.12.2026 -
Paolo Yrizar Chernomorets 活跃 99 / 98 40% 1 19.12.2026 -
David Davidyan Rotor 活跃 110 / 113 40% 1 15.12.2026 -
Alexandr Saplinov Volga 活跃 91 / 84 40% 2 05.12.2026 -
Said Aliev Rotor 活跃 99 / 91 40% 2 04.12.2026 -
Martin Sekulić Ural 活跃 103 / 113 40% 1 04.12.2026 -
Yeangel Montero Naxxar Lions 活跃 93 / 94 40% 2 03.12.2026 -
Stanislav Biblyk Chaika 活跃 97 / 105 40% 2 01.12.2026 -
Sam Nombe Milton Keynes Dons 活跃 110 / 101 40% 1 30.11.2026 -
Mattias Männilaan Nomme Kalju 活跃 80 / 99 40% 1 03.08.2026 -
Vladislav Chebotar Slutsk 活跃 67 / 79 40% 1 03.08.2026 -
Franco Baldassarra Kauno Zalgiris 活跃 111 / 124 40% 1 02.08.2026 -